createdAt,value
2023-04-01T00:00:25.636Z,8.06
2023-04-01T00:02:56.658Z,8.04
2023-04-01T00:05:27.601Z,8.05
2023-04-01T00:07:58.061Z,8.06
2023-04-01T00:10:28.432Z,8.01
2023-04-01T00:13:01.504Z,8.04
2023-04-01T00:15:32.186Z,8.02
2023-04-01T00:18:03.184Z,8.03
2023-04-01T00:20:34.128Z,8.07
2023-04-01T00:23:04.695Z,8.03
2023-04-01T00:25:35.684Z,8.04
2023-04-01T00:28:08.655Z,8.02
2023-04-01T00:30:40.588Z,8.02
2023-04-01T00:33:11.076Z,8.05
2023-04-01T00:35:41.825Z,8.08
2023-04-01T00:38:12.603Z,8.05
2023-04-01T00:40:46.225Z,8.06
2023-04-01T00:43:22.215Z,8.05
2023-04-01T00:45:53.824Z,8.09
2023-04-01T00:48:29.908Z,8.07
2023-04-01T00:51:07.158Z,8.13
2023-04-01T00:53:42.067Z,8.15
2023-04-01T00:56:17.883Z,8.14
2023-04-01T00:58:54.458Z,8.17
2023-04-01T01:01:26.534Z,8.08
2023-04-01T01:03:57.590Z,8.17
2023-04-01T01:06:42.239Z,8.15
2023-04-01T01:09:29.519Z,8.11
2023-04-01T01:12:10.208Z,8.13
2023-04-01T01:14:58.624Z,8.12
2023-04-01T01:17:44.554Z,8.09
2023-04-01T01:21:01.680Z,8.00
2023-04-01T01:24:22.573Z,8.01
2023-04-01T01:27:05.458Z,7.97
2023-04-01T01:30:09.074Z,8.03
2023-04-01T01:33:10.777Z,8.04
2023-04-01T01:35:48.183Z,8.02
2023-04-01T01:38:26.112Z,8.00
2023-04-01T01:41:10.657Z,8.00
2023-04-01T01:43:46.163Z,8.03
2023-04-01T01:46:23.847Z,7.97
2023-04-01T01:48:55.108Z,8.01
2023-04-01T01:51:31.132Z,7.96
2023-04-01T01:54:01.713Z,7.92
2023-04-01T01:56:34.554Z,7.84
2023-04-01T01:59:10.510Z,7.82
2023-04-01T02:01:46.983Z,7.76
2023-04-01T02:04:19.749Z,7.70
2023-04-01T02:07:01.525Z,7.70
2023-04-01T02:09:34.783Z,7.65
2023-04-01T02:12:10.642Z,7.64
2023-04-01T02:14:47.821Z,7.64
2023-04-01T02:17:22.361Z,7.65
2023-04-01T02:19:56.899Z,7.65
2023-04-01T02:22:35.444Z,7.66
2023-04-01T02:25:11.688Z,7.64
2023-04-01T02:27:43.208Z,7.65
2023-04-01T02:30:15.692Z,7.63
2023-04-01T02:32:46.703Z,7.60
2023-04-01T02:35:20.839Z,7.60
2023-04-01T02:37:55.966Z,7.57
2023-04-01T02:40:27.153Z,7.62
2023-04-01T02:42:57.491Z,7.63
2023-04-01T02:45:27.925Z,7.58
2023-04-01T02:47:58.381Z,7.59
2023-04-01T02:50:28.739Z,7.62
2023-04-01T02:53:01.905Z,7.58
2023-04-01T02:55:32.672Z,7.59
2023-04-01T02:58:03.500Z,7.55
2023-04-01T03:00:34.506Z,7.57
2023-04-01T03:03:04.942Z,7.57
2023-04-01T03:05:35.701Z,7.60
2023-04-01T03:08:09.132Z,7.53
2023-04-01T03:10:39.465Z,7.55
2023-04-01T03:13:10.760Z,7.54
2023-04-01T03:15:41.320Z,7.55
2023-04-01T03:18:11.781Z,7.51
2023-04-01T03:20:42.240Z,7.52
2023-04-01T03:23:15.269Z,7.46
2023-04-01T03:25:45.757Z,7.50
2023-04-01T03:28:16.181Z,7.48
2023-04-01T03:30:47.407Z,7.48
2023-04-01T03:33:18.096Z,7.45
2023-04-01T03:35:48.409Z,7.46
2023-04-01T03:38:21.708Z,7.42
2023-04-01T03:40:52.254Z,7.43
2023-04-01T03:43:23.563Z,7.41
2023-04-01T03:45:55.606Z,7.39
2023-04-01T03:48:26.530Z,7.38
2023-04-01T03:50:56.915Z,7.40
2023-04-01T03:53:30.805Z,7.40
2023-04-01T03:56:08.543Z,7.39
2023-04-01T03:58:40.993Z,7.39
2023-04-01T04:01:22.385Z,7.37
2023-04-01T04:03:56.574Z,7.36
2023-04-01T04:06:28.551Z,7.37
2023-04-01T04:09:01.737Z,7.37
2023-04-01T04:11:35.796Z,7.33
2023-04-01T04:14:06.848Z,7.39
2023-04-01T04:16:40.431Z,7.36
2023-04-01T04:19:11.359Z,7.35
2023-04-01T04:21:43.559Z,7.36
2023-04-01T04:24:17.152Z,7.38
2023-04-01T04:27:10.506Z,7.40
2023-04-01T04:29:47.732Z,7.38
2023-04-01T04:32:18.221Z,7.34
2023-04-01T04:34:48.672Z,7.32
2023-04-01T04:37:19.111Z,7.26
2023-04-01T04:39:52.038Z,7.29
2023-04-01T04:42:23.166Z,7.26
2023-04-01T04:44:57.424Z,7.23
2023-04-01T04:47:27.908Z,7.22
2023-04-01T04:49:58.260Z,7.17
2023-04-01T04:52:28.682Z,7.14
2023-04-01T04:55:01.924Z,7.14
2023-04-01T04:57:32.578Z,7.07
2023-04-01T05:00:02.977Z,7.05
2023-04-01T05:02:57.695Z,7.05
2023-04-01T05:05:28.467Z,7.03
2023-04-01T05:07:58.865Z,7.00
2023-04-01T05:10:32.698Z,7.01
2023-04-01T05:13:03.589Z,7.03
2023-04-01T05:15:35.168Z,7.04
2023-04-01T05:18:06.068Z,6.99
2023-04-01T05:20:36.648Z,7.05
2023-04-01T05:23:07.919Z,7.10
2023-04-01T05:25:42.263Z,7.13
2023-04-01T05:28:13.353Z,7.13
2023-04-01T05:30:45.313Z,7.16
2023-04-01T05:33:30.172Z,7.10
2023-04-01T05:36:00.919Z,7.15
2023-04-01T05:38:31.323Z,7.14
2023-04-01T05:41:06.763Z,7.20
2023-04-01T05:43:41.125Z,7.22
2023-04-01T05:46:32.737Z,7.29
2023-04-01T05:49:12.500Z,7.29
2023-04-01T05:51:43.122Z,7.28
2023-04-01T05:54:13.789Z,7.34
2023-04-01T05:56:48.691Z,7.35
2023-04-01T05:59:19.915Z,7.37
2023-04-01T06:01:50.327Z,7.44
2023-04-01T06:04:22.572Z,7.47
2023-04-01T06:06:53.073Z,7.50
2023-04-01T06:09:30.338Z,7.51
2023-04-01T06:12:28.750Z,7.57
2023-04-01T06:15:24.569Z,7.64
2023-04-01T06:18:34.804Z,7.70
2023-04-01T06:21:29.027Z,7.75
2023-04-01T06:24:25.222Z,7.73
2023-04-01T06:27:04.770Z,7.84
2023-04-01T06:29:59.711Z,7.82
2023-04-01T06:33:00.182Z,7.92
2023-04-01T06:35:56.034Z,7.99
2023-04-01T06:38:50.124Z,8.04
2023-04-01T06:41:48.859Z,8.07
2023-04-01T06:44:27.688Z,8.11
2023-04-01T06:47:34.804Z,8.08
2023-04-01T06:50:30.543Z,8.12
2023-04-01T06:53:26.989Z,8.14
2023-04-01T06:56:39.707Z,8.14
2023-04-01T06:59:22.004Z,8.17
2023-04-01T07:01:57.870Z,8.21
2023-04-01T07:04:34.275Z,8.25
2023-04-01T07:07:09.947Z,8.24
2023-04-01T07:09:53.696Z,8.21
2023-04-01T07:12:55.498Z,8.27
2023-04-01T07:15:47.717Z,8.32
2023-04-01T07:18:23.469Z,8.30
2023-04-01T07:20:57.485Z,8.27
2023-04-01T07:23:32.965Z,8.28
2023-04-01T07:26:26.402Z,8.28
2023-04-01T07:29:09.800Z,8.29
2023-04-01T07:32:05.790Z,8.31
2023-04-01T07:34:48.242Z,8.31
2023-04-01T07:37:33.047Z,8.34
2023-04-01T07:40:18.319Z,8.33
2023-04-01T07:43:11.823Z,8.32
2023-04-01T07:45:59.763Z,8.33
2023-04-01T07:48:41.436Z,8.32
2023-04-01T07:51:19.097Z,8.35
2023-04-01T07:54:07.110Z,8.39
2023-04-01T07:56:45.914Z,8.38
2023-04-01T07:59:31.852Z,8.44
2023-04-01T08:02:14.823Z,8.48
2023-04-01T08:05:04.297Z,8.50
2023-04-01T08:07:46.373Z,8.50
2023-04-01T08:10:47.574Z,8.53
2023-04-01T08:14:01.936Z,8.56
2023-04-01T08:17:01.945Z,8.58
2023-04-01T08:20:00.742Z,8.63
2023-04-01T08:22:42.013Z,8.67
2023-04-01T08:25:27.008Z,8.66
2023-04-01T08:28:08.399Z,8.68
2023-04-01T08:30:47.054Z,8.66
2023-04-01T08:33:26.053Z,8.71
2023-04-01T08:36:08.112Z,8.70
2023-04-01T08:38:46.327Z,8.72
2023-04-01T08:42:01.513Z,8.68
2023-04-01T08:45:24.667Z,8.60
2023-04-01T08:48:23.615Z,8.54
2023-04-01T08:51:36.526Z,8.42
2023-04-01T08:54:33.873Z,8.33
2023-04-01T08:57:12.622Z,8.21
2023-04-01T09:00:15.824Z,8.14
2023-04-01T09:03:38.468Z,8.06
2023-04-01T09:06:47.551Z,8.03
2023-04-01T09:09:53.316Z,8.00
2023-04-01T09:12:57.269Z,8.07
2023-04-01T09:16:05.482Z,8.14
2023-04-01T09:19:02.820Z,8.15
2023-04-01T09:22:02.002Z,8.20
2023-04-01T09:25:03.131Z,8.22
2023-04-01T09:27:39.160Z,8.28
2023-04-01T09:30:37.958Z,8.37
2023-04-01T09:33:56.441Z,8.44
2023-04-01T09:36:49.863Z,8.50
2023-04-01T09:39:41.658Z,8.55
2023-04-01T09:42:49.483Z,8.63
2023-04-01T09:45:41.590Z,8.62
2023-04-01T09:48:25.599Z,8.68
2023-04-01T09:51:09.315Z,8.70
2023-04-01T09:53:57.872Z,8.67
2023-04-01T09:57:15.410Z,8.64
2023-04-01T10:00:36.604Z,8.62
2023-04-01T10:04:01.276Z,8.66
2023-04-01T10:07:05.793Z,8.66
2023-04-01T10:10:35.670Z,8.76
2023-04-01T10:13:46.141Z,8.76
2023-04-01T10:16:31.700Z,8.79
2023-04-01T10:19:46.312Z,8.83
2023-04-01T10:22:44.712Z,8.88
2023-04-01T10:26:00.098Z,8.92
2023-04-01T10:29:07.027Z,8.94
2023-04-01T10:32:17.312Z,9.00
2023-04-01T10:35:49.082Z,9.02
2023-04-01T10:38:54.564Z,9.01
2023-04-01T10:42:28.767Z,9.05
2023-04-01T10:45:58.977Z,9.09
2023-04-01T10:49:23.202Z,8.99
2023-04-01T10:52:31.855Z,9.01
2023-04-01T10:56:03.733Z,9.07
2023-04-01T11:00:05.648Z,9.13
2023-04-01T11:03:49.196Z,9.16
2023-04-01T11:07:25.991Z,9.17
2023-04-01T11:10:44.558Z,9.24
2023-04-01T11:14:00.029Z,9.26
2023-04-01T11:17:11.019Z,9.35
2023-04-01T11:20:33.043Z,9.43
2023-04-01T11:23:33.664Z,9.45
2023-04-01T11:26:12.313Z,9.64
2023-04-01T11:29:19.931Z,9.66
2023-04-01T11:32:03.988Z,9.68
2023-04-01T11:35:10.144Z,9.77
2023-04-01T11:37:48.978Z,9.75
2023-04-01T11:40:47.226Z,9.84
2023-04-01T11:43:44.198Z,9.95
2023-04-01T11:47:12.108Z,10.00
2023-04-01T11:49:54.768Z,10.08
2023-04-01T11:53:03.019Z,9.96
2023-04-01T11:55:45.835Z,9.89
2023-04-01T11:58:39.264Z,9.93
2023-04-01T12:01:26.662Z,9.88
2023-04-01T12:04:58.238Z,9.78
2023-04-01T12:07:48.830Z,9.75
2023-04-01T12:10:23.933Z,9.75
2023-04-01T12:13:04.306Z,9.77
2023-04-01T12:15:55.091Z,9.73
2023-04-01T12:18:34.004Z,9.76
2023-04-01T12:21:20.947Z,9.74
2023-04-01T12:24:30.108Z,9.75
2023-04-01T12:27:11.947Z,9.69
2023-04-01T12:30:10.529Z,9.71
2023-04-01T12:32:49.817Z,9.70
2023-04-01T12:35:27.452Z,9.71
2023-04-01T12:38:20.303Z,9.74
2023-04-01T12:41:22.078Z,9.75
2023-04-01T12:44:29.053Z,9.78
2023-04-01T12:47:39.551Z,9.90
2023-04-01T12:50:41.538Z,9.93
2023-04-01T12:53:35.242Z,9.96
2023-04-01T12:56:11.170Z,9.98
2023-04-01T12:59:26.307Z,10.04
2023-04-01T13:02:17.756Z,10.11
2023-04-01T13:05:31.671Z,10.10
2023-04-01T13:08:12.420Z,10.13
2023-04-01T13:11:13.860Z,10.11
2023-04-01T13:14:30.680Z,9.95
2023-04-01T13:17:11.634Z,10.05
2023-04-01T13:19:57.923Z,10.00
2023-04-01T13:22:49.729Z,10.01
2023-04-01T13:25:29.450Z,9.94
2023-04-01T13:28:12.572Z,10.01
2023-04-01T13:30:54.456Z,10.10
2023-04-01T13:33:36.136Z,10.15
2023-04-01T13:36:22.225Z,10.10
2023-04-01T13:39:19.306Z,10.07
2023-04-01T13:42:26.226Z,10.09
2023-04-01T13:45:06.587Z,10.17
2023-04-01T13:48:25.905Z,10.23
2023-04-01T13:51:32.382Z,10.32
2023-04-01T13:54:27.551Z,10.30
2023-04-01T13:57:19.061Z,10.34
2023-04-01T14:00:23.282Z,10.31
2023-04-01T14:03:18.715Z,10.40
2023-04-01T14:06:06.417Z,10.40
2023-04-01T14:09:04.281Z,10.29
2023-04-01T14:11:45.672Z,10.26
2023-04-01T14:14:27.113Z,10.21
2023-04-01T14:17:20.942Z,10.18
2023-04-01T14:20:30.133Z,10.06
2023-04-01T14:23:18.559Z,10.02
2023-04-01T14:26:26.525Z,10.09
2023-04-01T14:29:07.019Z,10.11
2023-04-01T14:31:58.600Z,9.96
2023-04-01T14:34:59.449Z,9.85
2023-04-01T14:38:12.410Z,9.68
2023-04-01T14:41:03.104Z,9.56
2023-04-01T14:44:03.852Z,9.53
2023-04-01T14:47:21.524Z,9.54
2023-04-01T14:49:58.182Z,9.60
2023-04-01T14:52:35.730Z,9.62
2023-04-01T14:55:22.818Z,9.65
2023-04-01T14:58:09.050Z,9.71
2023-04-01T15:00:58.463Z,9.73
2023-04-01T15:03:34.749Z,9.79
2023-04-01T15:06:45.776Z,9.72
2023-04-01T15:09:28.691Z,9.78
2023-04-01T15:12:16.050Z,9.87
2023-04-01T15:15:13.875Z,9.94
2023-04-01T15:18:09.580Z,9.96
2023-04-01T15:21:05.333Z,9.98
2023-04-01T15:23:53.664Z,9.95
2023-04-01T15:26:49.154Z,10.01
2023-04-01T15:29:39.359Z,9.97
2023-04-01T15:32:21.370Z,10.02
2023-04-01T15:35:01.626Z,10.01
2023-04-01T15:37:42.957Z,10.02
2023-04-01T15:40:27.105Z,10.00
2023-04-01T15:43:15.500Z,10.00
2023-04-01T15:46:02.347Z,9.95
2023-04-01T15:48:54.221Z,9.93
2023-04-01T15:51:52.467Z,9.90
2023-04-01T15:54:57.644Z,9.90
2023-04-01T15:57:46.298Z,9.91
2023-04-01T16:00:30.449Z,9.92
2023-04-01T16:03:35.316Z,9.89
2023-04-01T16:06:34.832Z,9.87
2023-04-01T16:09:25.356Z,9.89
2023-04-01T16:12:01.990Z,9.85
2023-04-01T16:14:46.815Z,9.84
2023-04-01T16:17:39.014Z,9.87
2023-04-01T16:20:23.645Z,9.84
2023-04-01T16:23:02.799Z,9.89
2023-04-01T16:25:41.212Z,9.88
2023-04-01T16:28:24.106Z,9.87
2023-04-01T16:31:03.084Z,9.83
2023-04-01T16:33:44.939Z,9.87
2023-04-01T16:36:26.585Z,9.83
2023-04-01T16:39:13.762Z,9.88
2023-04-01T16:41:52.804Z,9.95
2023-04-01T16:44:27.188Z,9.88
2023-04-01T16:47:03.281Z,9.80
2023-04-01T16:49:40.923Z,9.82
2023-04-01T16:52:20.747Z,9.76
2023-04-01T16:55:01.038Z,9.83
2023-04-01T16:57:39.347Z,9.80
2023-04-01T17:00:26.815Z,9.71
2023-04-01T17:03:13.132Z,9.67
2023-04-01T17:05:59.245Z,9.67
2023-04-01T17:09:03.186Z,9.62
2023-04-01T17:11:42.233Z,9.70
2023-04-01T17:14:25.190Z,9.68
2023-04-01T17:17:41.395Z,9.70
2023-04-01T17:20:42.422Z,9.76
2023-04-01T17:23:25.153Z,9.77
2023-04-01T17:26:31.466Z,9.76
2023-04-01T17:29:09.756Z,9.74
2023-04-01T17:31:56.467Z,9.74
2023-04-01T17:34:56.819Z,9.74
2023-04-01T17:37:49.239Z,9.78
2023-04-01T17:40:39.682Z,9.80
2023-04-01T17:43:22.709Z,9.78
2023-04-01T17:45:59.695Z,9.72
2023-04-01T17:48:46.468Z,9.75
2023-04-01T17:51:28.700Z,9.74
2023-04-01T17:54:15.891Z,9.72
2023-04-01T17:57:01.036Z,9.76
2023-04-01T17:59:40.422Z,9.71
2023-04-01T18:02:28.732Z,9.72
2023-04-01T18:05:38.422Z,9.62
2023-04-01T18:08:20.209Z,9.58
2023-04-01T18:11:06.893Z,9.58
2023-04-01T18:14:11.823Z,9.52
2023-04-01T18:17:03.494Z,9.40
2023-04-01T18:19:44.690Z,9.37
2023-04-01T18:22:24.327Z,9.26
2023-04-01T18:25:05.185Z,9.22
2023-04-01T18:27:44.180Z,9.22
2023-04-01T18:30:20.408Z,9.23
2023-04-01T18:32:56.541Z,9.21
2023-04-01T18:35:38.955Z,9.17
2023-04-01T18:38:16.698Z,9.15
2023-04-01T18:40:52.646Z,9.15
2023-04-01T18:43:39.103Z,9.18
2023-04-01T18:46:16.714Z,9.16
2023-04-01T18:48:58.926Z,9.09
2023-04-01T18:51:42.554Z,9.06
2023-04-01T18:54:20.985Z,9.12
2023-04-01T18:56:51.477Z,9.06
2023-04-01T18:59:31.531Z,9.01
2023-04-01T19:02:11.628Z,8.94
2023-04-01T19:04:47.876Z,8.95
2023-04-01T19:07:48.534Z,8.88
2023-04-01T19:10:27.287Z,8.85
2023-04-01T19:13:23.435Z,8.69
2023-04-01T19:16:06.840Z,8.69
2023-04-01T19:19:15.806Z,8.67
2023-04-01T19:21:51.035Z,8.57
2023-04-01T19:24:53.007Z,8.63
2023-04-01T19:27:35.027Z,8.54
2023-04-01T19:30:40.537Z,8.47
2023-04-01T19:33:32.797Z,8.43
2023-04-01T19:36:15.949Z,8.40
2023-04-01T19:38:57.109Z,8.40
2023-04-01T19:41:43.461Z,8.39
2023-04-01T19:44:34.344Z,8.35
2023-04-01T19:47:15.660Z,8.35
2023-04-01T19:50:04.905Z,8.28
2023-04-01T19:52:38.506Z,8.27
2023-04-01T19:55:25.600Z,8.25
2023-04-01T19:58:06.516Z,8.18
2023-04-01T20:00:42.174Z,8.21
2023-04-01T20:03:29.996Z,8.22
2023-04-01T20:06:14.310Z,8.20
2023-04-01T20:08:53.301Z,8.21
2023-04-01T20:11:41.592Z,8.21
2023-04-01T20:14:21.859Z,8.21
2023-04-01T20:17:06.598Z,8.21
2023-04-01T20:19:43.863Z,8.21
2023-04-01T20:22:35.996Z,8.24
2023-04-01T20:25:16.990Z,8.24
2023-04-01T20:27:54.330Z,8.22
2023-04-01T20:30:54.400Z,8.26
2023-04-01T20:34:07.574Z,8.21
2023-04-01T20:36:52.178Z,8.23
2023-04-01T20:40:12.835Z,8.25
2023-04-01T20:43:18.568Z,8.21
2023-04-01T20:45:58.964Z,8.23
2023-04-01T20:49:23.150Z,8.30
2023-04-01T20:52:03.915Z,8.30
2023-04-01T20:54:55.276Z,8.27
2023-04-01T20:57:31.892Z,8.27
2023-04-01T21:00:33.351Z,8.23
2023-04-01T21:03:23.717Z,8.24
2023-04-01T21:06:22.280Z,8.23
2023-04-01T21:09:06.812Z,8.22
2023-04-01T21:11:53.220Z,8.22
2023-04-01T21:15:00.215Z,8.21
2023-04-01T21:17:46.306Z,8.21
2023-04-01T21:20:45.280Z,8.21
2023-04-01T21:23:44.282Z,8.24
2023-04-01T21:26:29.458Z,8.23
2023-04-01T21:29:23.099Z,8.19
2023-04-01T21:32:05.198Z,8.16
2023-04-01T21:34:46.476Z,8.16
2023-04-01T21:37:48.139Z,8.23
2023-04-01T21:40:52.540Z,8.22
2023-04-01T21:43:44.305Z,8.19
2023-04-01T21:47:07.665Z,8.30
2023-04-01T21:50:05.498Z,8.22
2023-04-01T21:53:09.654Z,8.20
2023-04-01T21:56:29.105Z,8.19
2023-04-01T21:59:55.368Z,8.21
2023-04-01T22:03:15.996Z,8.19
2023-04-01T22:06:05.131Z,8.19
2023-04-01T22:09:09.737Z,8.17
2023-04-01T22:11:55.570Z,8.15
2023-04-01T22:14:32.977Z,8.12
2023-04-01T22:17:09.512Z,8.11
2023-04-01T22:19:52.002Z,8.08
2023-04-01T22:22:27.508Z,8.14
2023-04-01T22:25:08.935Z,8.11
2023-04-01T22:27:46.144Z,8.04
2023-04-01T22:30:24.579Z,8.02
2023-04-01T22:33:02.970Z,8.04
2023-04-01T22:35:46.770Z,8.06
2023-04-01T22:38:35.089Z,8.01
2023-04-01T22:41:16.433Z,8.00
2023-04-01T22:43:48.818Z,8.01
2023-04-01T22:46:50.204Z,8.01
2023-04-01T22:49:29.083Z,7.99
2023-04-01T22:52:09.654Z,8.02
2023-04-01T22:54:46.027Z,8.01
2023-04-01T22:57:35.993Z,7.96
2023-04-01T23:00:16.376Z,7.96
2023-04-01T23:03:03.367Z,7.98
2023-04-01T23:05:35.980Z,7.95
2023-04-01T23:08:50.940Z,8.01
2023-04-01T23:11:26.810Z,8.01
2023-04-01T23:14:09.171Z,8.01
2023-04-01T23:16:45.334Z,7.99
2023-04-01T23:19:24.090Z,8.00
2023-04-01T23:22:02.867Z,8.02
2023-04-01T23:24:41.903Z,8.00
2023-04-01T23:27:19.342Z,8.02
2023-04-01T23:29:50.223Z,8.04
2023-04-01T23:32:22.982Z,8.01
2023-04-01T23:34:56.095Z,8.00
2023-04-01T23:37:27.669Z,7.98
2023-04-01T23:40:02.273Z,7.97
2023-04-01T23:42:35.282Z,7.95
2023-04-01T23:45:09.865Z,7.97
2023-04-01T23:47:44.224Z,7.90
2023-04-01T23:50:19.017Z,7.95
2023-04-01T23:52:53.317Z,7.95
2023-04-01T23:55:30.777Z,7.88
2023-04-01T23:58:18.902Z,7.87
